Gainesville Regional Airport Gainesville US
ICAO: KGNV
IATA: GNV
Category: Medium
Scheduled Services: Yes

Elevation: 152 ft
TransAlt. 18000 ft.

Airport Communications:
JACKSONVILLE APP/DEP:118.175
ATIS:127.15
CTAF:119.55
GND:121.7
RDO:122.1
RDO:122.2
TWR:119.55
UNICOM:122.95

KGNV Zoom In..

Runways:

(A) RW 07 length 4158 ft width 100 ft
---- / hdg 65

(B) RW 11 length 7504 ft width 150 ft
---- / hdg 106

(C) RW 25 length 4158 ft width 100 ft
---- / hdg 245

(D) RW 29 length 7504 ft width 150 ft
ILS 111.30 / hdg 286

Location; KGNV
Day. 21 / Time. 05.53 Zulu
* Altimeter: 29.98
* Temperature: 26° c. 78.8°f.
* Wind from: 100° Speed 03 kn.
Dewpoint: 23° c.
Visibility: 8 Statute Miles.
Clouds: Overcast 500 ft.

KGNV 210553Z AUTO 10003KT 8SM OVC005 26/23 A2998 RMK AO2 SLP148 T02560233 10261 20250 53001


Wind From 100°
Speed 03 kn.

 
 
jpsmedia.com for Web Design worldairports.se 2018   terms of use